createdAt,value
2023-01-19T00:01:04.778Z,3.20
2023-01-19T00:03:37.182Z,3.20
2023-01-19T00:06:06.946Z,3.10
2023-01-19T00:08:35.940Z,3.00
2023-01-19T00:11:04.553Z,3.10
2023-01-19T00:13:33.257Z,3.10
2023-01-19T00:16:01.504Z,3.00
2023-01-19T00:18:30.242Z,2.90
2023-01-19T00:20:59.865Z,2.90
2023-01-19T00:23:28.139Z,2.90
2023-01-19T00:25:56.738Z,3.00
2023-01-19T00:28:24.916Z,3.00
2023-01-19T00:30:53.192Z,3.00
2023-01-19T00:33:21.734Z,2.90
2023-01-19T00:35:52.795Z,2.80
2023-01-19T00:38:23.265Z,2.90
2023-01-19T00:40:51.496Z,2.90
2023-01-19T00:43:18.678Z,2.90
2023-01-19T00:45:47.787Z,2.90
2023-01-19T00:48:15.956Z,3.00
2023-01-19T00:50:44.291Z,2.80
2023-01-19T00:53:12.829Z,2.90
2023-01-19T00:55:42.414Z,2.90
2023-01-19T00:58:10.933Z,2.90
2023-01-19T01:00:39.377Z,2.90
2023-01-19T01:03:07.693Z,2.90
2023-01-19T01:05:36.045Z,3.00
2023-01-19T01:08:04.550Z,3.10
2023-01-19T01:10:32.789Z,3.10
2023-01-19T01:13:21.019Z,3.00
2023-01-19T01:15:52.584Z,3.00
2023-01-19T01:18:21.688Z,3.00
2023-01-19T01:20:50.074Z,3.00
2023-01-19T01:23:23.219Z,3.00
2023-01-19T01:25:51.641Z,2.90
2023-01-19T01:28:21.684Z,2.80
2023-01-19T01:30:54.190Z,2.90
2023-01-19T01:33:39.996Z,3.00
2023-01-19T01:36:11.456Z,3.00
2023-01-19T01:38:40.155Z,2.90
2023-01-19T01:41:08.481Z,2.90
2023-01-19T01:43:50.501Z,2.90
2023-01-19T01:46:19.971Z,2.90
2023-01-19T01:48:55.389Z,2.90
2023-01-19T01:51:28.116Z,2.90
2023-01-19T01:54:12.962Z,2.90
2023-01-19T01:56:43.763Z,2.90
2023-01-19T01:59:25.923Z,2.90
2023-01-19T02:02:14.394Z,2.90
2023-01-19T02:04:48.782Z,3.00
2023-01-19T02:07:39.454Z,3.00
2023-01-19T02:10:25.823Z,3.10
2023-01-19T02:13:11.663Z,3.10
2023-01-19T02:15:41.686Z,3.00
2023-01-19T02:18:10.631Z,3.00
2023-01-19T02:20:40.676Z,3.00
2023-01-19T02:23:18.624Z,3.00
2023-01-19T02:25:49.198Z,3.00
2023-01-19T02:28:18.761Z,3.10
2023-01-19T02:30:47.422Z,3.10
2023-01-19T02:33:15.709Z,3.10
2023-01-19T02:35:45.883Z,3.10
2023-01-19T02:38:16.454Z,3.10
2023-01-19T02:40:46.931Z,3.00
2023-01-19T02:43:18.986Z,3.10
2023-01-19T02:45:48.559Z,3.00
2023-01-19T02:48:19.657Z,3.00
2023-01-19T02:50:50.976Z,3.00
2023-01-19T02:53:32.428Z,3.00
2023-01-19T02:56:11.350Z,3.00
2023-01-19T02:58:46.849Z,3.00
2023-01-19T03:01:23.015Z,3.00
2023-01-19T03:03:59.420Z,2.90
2023-01-19T03:06:39.289Z,2.90
2023-01-19T03:09:13.718Z,2.90
2023-01-19T03:11:48.579Z,3.00
2023-01-19T03:14:24.612Z,2.90
2023-01-19T03:16:56.112Z,3.00
2023-01-19T03:19:28.668Z,3.00
2023-01-19T03:22:00.423Z,2.90
2023-01-19T03:24:34.464Z,2.90
2023-01-19T03:27:08.281Z,2.90
2023-01-19T03:29:40.821Z,2.90
2023-01-19T03:32:13.607Z,2.90
2023-01-19T03:34:44.152Z,2.90
2023-01-19T03:37:15.271Z,2.90
2023-01-19T03:39:43.814Z,2.90
2023-01-19T03:42:15.448Z,2.80
2023-01-19T03:44:46.689Z,2.80
2023-01-19T03:47:16.392Z,2.80
2023-01-19T03:49:46.920Z,2.80
2023-01-19T03:52:15.130Z,3.00
2023-01-19T03:54:43.843Z,2.90
2023-01-19T03:57:12.944Z,3.00
2023-01-19T03:59:41.273Z,3.00
2023-01-19T04:02:11.240Z,2.90
2023-01-19T04:04:40.149Z,2.90
2023-01-19T04:07:10.964Z,2.90
2023-01-19T04:09:39.387Z,2.80
2023-01-19T04:12:07.967Z,2.90
2023-01-19T04:14:36.354Z,2.80
2023-01-19T04:17:04.759Z,2.90
2023-01-19T04:19:34.356Z,2.90
2023-01-19T04:22:02.822Z,2.90
2023-01-19T04:24:31.195Z,2.90
2023-01-19T04:26:59.458Z,2.80
2023-01-19T04:29:27.964Z,2.70
2023-01-19T04:31:56.535Z,2.70
2023-01-19T04:34:24.722Z,2.80
2023-01-19T04:36:56.063Z,2.80
2023-01-19T04:39:24.579Z,2.80
2023-01-19T04:41:52.944Z,2.70
2023-01-19T04:44:21.440Z,2.80
2023-01-19T04:46:50.047Z,2.80
2023-01-19T04:49:18.289Z,2.70
2023-01-19T04:51:46.775Z,2.60
2023-01-19T04:54:16.637Z,2.50
2023-01-19T04:56:44.977Z,2.50
2023-01-19T04:59:13.367Z,2.40
2023-01-19T05:01:41.831Z,2.50
2023-01-19T05:04:10.253Z,2.60
2023-01-19T05:06:38.557Z,2.50
2023-01-19T05:09:08.127Z,2.60
2023-01-19T05:11:37.967Z,2.60
2023-01-19T05:14:06.254Z,2.70
2023-01-19T05:16:35.288Z,2.80
2023-01-19T05:19:03.663Z,2.80
2023-01-19T05:21:31.923Z,2.70
2023-01-19T05:24:00.569Z,2.70
2023-01-19T05:26:29.107Z,2.70
2023-01-19T05:28:58.757Z,2.70
2023-01-19T05:31:27.220Z,2.70
2023-01-19T05:33:55.665Z,2.70
2023-01-19T05:36:23.860Z,2.70
2023-01-19T05:38:52.269Z,2.70
2023-01-19T05:41:20.678Z,2.60
2023-01-19T05:43:48.845Z,2.50
2023-01-19T05:46:18.537Z,2.50
2023-01-19T05:48:46.972Z,2.50
2023-01-19T05:51:15.288Z,2.50
2023-01-19T05:53:43.683Z,2.70
2023-01-19T05:56:12.997Z,2.60
2023-01-19T05:58:41.354Z,2.60
2023-01-19T06:01:11.599Z,2.60
2023-01-19T06:03:41.469Z,2.60
2023-01-19T06:06:09.754Z,2.50
2023-01-19T06:08:38.081Z,2.50
2023-01-19T06:11:07.682Z,2.60
2023-01-19T06:13:36.004Z,2.50
2023-01-19T06:16:05.049Z,2.60
2023-01-19T06:18:33.518Z,2.60
2023-01-19T06:21:06.469Z,2.50
2023-01-19T06:23:36.063Z,2.50
2023-01-19T06:26:04.906Z,2.50
2023-01-19T06:28:33.477Z,2.40
2023-01-19T06:31:01.921Z,2.40
2023-01-19T06:33:30.286Z,2.40
2023-01-19T06:35:59.148Z,2.40
2023-01-19T06:38:29.518Z,2.40
2023-01-19T06:40:59.700Z,2.40
2023-01-19T06:43:28.345Z,2.40
2023-01-19T06:45:57.354Z,2.30
2023-01-19T06:48:25.902Z,2.30
2023-01-19T06:50:54.357Z,2.40
2023-01-19T06:53:22.608Z,2.50
2023-01-19T06:55:52.319Z,2.40
2023-01-19T06:58:21.040Z,2.40
2023-01-19T07:00:51.753Z,2.40
2023-01-19T07:03:22.292Z,2.40
2023-01-19T07:05:53.267Z,2.30
2023-01-19T07:08:21.803Z,2.40
2023-01-19T07:11:27.004Z,2.40
2023-01-19T07:13:41.139Z,2.40
2023-01-19T07:16:12.435Z,2.30
2023-01-19T07:18:41.796Z,2.40
2023-01-19T07:21:10.473Z,2.40
2023-01-19T07:23:38.718Z,2.40
2023-01-19T07:26:08.833Z,2.40
2023-01-19T07:28:37.204Z,2.30
2023-01-19T07:31:05.763Z,2.30
2023-01-19T07:33:34.223Z,2.30
2023-01-19T07:36:02.655Z,2.30
2023-01-19T07:38:30.909Z,2.20
2023-01-19T07:41:02.876Z,2.30
2023-01-19T07:43:33.206Z,2.30
2023-01-19T07:46:03.232Z,2.30
2023-01-19T07:48:31.695Z,2.20
2023-01-19T07:51:01.960Z,2.20
2023-01-19T07:53:30.437Z,2.20
2023-01-19T07:55:58.992Z,2.30
2023-01-19T07:58:27.843Z,2.20
2023-01-19T08:00:57.984Z,2.30
2023-01-19T08:03:26.318Z,2.30
2023-01-19T08:05:57.152Z,2.20
2023-01-19T08:08:25.626Z,2.30
2023-01-19T08:10:54.259Z,2.40
2023-01-19T08:13:22.830Z,2.40
2023-01-19T08:15:52.197Z,2.50
2023-01-19T08:18:22.434Z,2.80
2023-01-19T08:20:50.918Z,3.00
2023-01-19T08:23:19.783Z,3.20
2023-01-19T08:25:48.232Z,3.60
2023-01-19T08:28:18.374Z,4.00
2023-01-19T08:30:53.974Z,4.20
2023-01-19T08:33:25.681Z,4.30
2023-01-19T08:35:55.215Z,4.30
2023-01-19T08:38:24.816Z,4.30
2023-01-19T08:40:53.543Z,4.20
2023-01-19T08:43:21.830Z,4.20
2023-01-19T08:45:52.832Z,4.10
2023-01-19T08:48:24.223Z,4.00
2023-01-19T08:50:53.320Z,4.00
2023-01-19T08:53:23.624Z,4.30
2023-01-19T08:55:56.194Z,4.60
2023-01-19T08:58:24.871Z,4.80
2023-01-19T09:00:53.177Z,5.00
2023-01-19T09:03:23.959Z,5.10
2023-01-19T09:05:52.609Z,5.20
2023-01-19T09:08:20.792Z,5.30
2023-01-19T09:10:51.290Z,5.10
2023-01-19T09:13:20.982Z,4.90
2023-01-19T09:15:49.323Z,4.50
2023-01-19T09:18:20.340Z,4.20
2023-01-19T09:20:51.740Z,4.10
2023-01-19T09:23:22.861Z,4.10
2023-01-19T09:25:56.799Z,3.90
2023-01-19T09:28:25.309Z,3.90
2023-01-19T09:30:53.907Z,3.80
2023-01-19T09:33:22.762Z,3.70
2023-01-19T09:35:53.150Z,3.80
2023-01-19T09:38:22.525Z,3.70
2023-01-19T09:40:53.197Z,3.60
2023-01-19T09:43:34.154Z,3.60
2023-01-19T09:46:04.133Z,3.60
2023-01-19T09:48:44.057Z,3.50
2023-01-19T09:51:17.565Z,3.50
2023-01-19T09:53:54.484Z,3.40
2023-01-19T09:56:23.698Z,3.50
2023-01-19T09:58:52.842Z,3.60
2023-01-19T10:01:42.264Z,3.60
2023-01-19T10:04:28.927Z,3.60
2023-01-19T10:07:08.593Z,3.70
2023-01-19T10:09:47.700Z,3.80
2023-01-19T10:12:26.108Z,3.90
2023-01-19T10:15:04.312Z,3.90
2023-01-19T10:17:44.099Z,3.70
2023-01-19T10:20:19.158Z,3.60
2023-01-19T10:22:51.284Z,3.70
2023-01-19T10:25:23.823Z,3.70
2023-01-19T10:27:52.807Z,3.70
2023-01-19T10:30:24.776Z,3.70
2023-01-19T10:32:53.974Z,3.60
2023-01-19T10:35:25.219Z,3.60
2023-01-19T10:37:57.650Z,3.50
2023-01-19T10:40:34.467Z,3.50
2023-01-19T10:43:03.470Z,3.40
2023-01-19T10:45:33.656Z,3.30
2023-01-19T10:48:09.520Z,3.50
2023-01-19T10:50:40.705Z,3.60
2023-01-19T10:53:22.443Z,3.70
2023-01-19T10:56:13.009Z,3.90
2023-01-19T10:58:41.970Z,4.10
2023-01-19T11:01:19.152Z,4.20
2023-01-19T11:03:47.904Z,4.20
2023-01-19T11:06:30.017Z,4.20
2023-01-19T11:09:17.721Z,4.20
2023-01-19T11:11:49.126Z,4.20
2023-01-19T11:14:21.115Z,4.10
2023-01-19T11:16:52.552Z,4.10
2023-01-19T11:19:26.120Z,4.10
2023-01-19T11:21:54.444Z,4.20
2023-01-19T11:24:25.623Z,4.10
2023-01-19T11:27:03.173Z,4.00
2023-01-19T11:29:32.203Z,4.00
2023-01-19T11:32:13.774Z,3.90
2023-01-19T11:34:42.063Z,3.80
2023-01-19T11:37:28.900Z,3.80
2023-01-19T11:40:00.181Z,3.70
2023-01-19T11:42:31.715Z,3.70
2023-01-19T11:45:05.252Z,3.80
2023-01-19T11:47:41.295Z,3.90
2023-01-19T11:50:17.145Z,4.00
2023-01-19T11:52:51.347Z,4.10
2023-01-19T11:55:26.066Z,4.10
2023-01-19T11:57:55.846Z,4.40
2023-01-19T12:00:29.766Z,4.60
2023-01-19T12:03:06.086Z,4.70
2023-01-19T12:05:37.740Z,4.90
2023-01-19T12:08:11.464Z,4.80
2023-01-19T12:10:43.709Z,4.80
2023-01-19T12:13:22.145Z,4.90
2023-01-19T12:15:54.477Z,4.90
2023-01-19T12:18:25.682Z,4.80
2023-01-19T12:20:55.789Z,4.90
2023-01-19T12:23:32.688Z,4.90
2023-01-19T12:26:19.778Z,5.10
2023-01-19T12:28:50.005Z,5.40
2023-01-19T12:31:20.831Z,5.70
2023-01-19T12:33:49.779Z,5.80
2023-01-19T12:36:36.835Z,5.80
2023-01-19T12:39:07.432Z,5.80
2023-01-19T12:41:38.357Z,5.80
2023-01-19T12:44:27.745Z,5.80
2023-01-19T12:47:03.507Z,5.80
2023-01-19T12:49:35.507Z,5.80
2023-01-19T12:52:19.687Z,5.90
2023-01-19T12:54:56.235Z,6.00
2023-01-19T12:57:31.728Z,6.00
2023-01-19T13:00:01.705Z,6.00
2023-01-19T13:02:44.778Z,6.00
2023-01-19T13:05:50.485Z,6.00
2023-01-19T13:08:24.295Z,6.00
2023-01-19T13:11:25.827Z,6.10
2023-01-19T13:14:36.501Z,6.10
2023-01-19T13:17:28.140Z,6.10
2023-01-19T13:20:08.348Z,6.10
2023-01-19T13:23:13.981Z,6.10
2023-01-19T13:25:45.648Z,5.90
2023-01-19T13:28:17.240Z,5.90
2023-01-19T13:30:58.006Z,5.90
2023-01-19T13:33:29.381Z,6.00
2023-01-19T13:35:59.666Z,5.90
2023-01-19T13:38:32.950Z,6.00
2023-01-19T13:41:03.214Z,6.10
2023-01-19T13:43:37.507Z,6.00
2023-01-19T13:46:07.960Z,5.90
2023-01-19T13:48:36.583Z,5.90
2023-01-19T13:51:07.085Z,5.90
2023-01-19T13:53:36.825Z,5.70
2023-01-19T13:56:20.706Z,5.60
2023-01-19T13:59:11.935Z,5.40
2023-01-19T14:01:44.358Z,5.20
2023-01-19T14:04:29.190Z,5.00
2023-01-19T14:06:59.881Z,4.80
2023-01-19T14:09:28.472Z,4.80
2023-01-19T14:12:09.748Z,4.80
2023-01-19T14:14:38.368Z,4.70
2023-01-19T14:17:23.971Z,4.80
2023-01-19T14:19:53.803Z,4.70
2023-01-19T14:22:22.126Z,4.80
2023-01-19T14:24:50.749Z,4.80
2023-01-19T14:27:22.813Z,4.80
2023-01-19T14:29:54.057Z,4.80
2023-01-19T14:32:24.841Z,4.90
2023-01-19T14:35:12.860Z,4.80
2023-01-19T14:37:48.799Z,4.80
2023-01-19T14:40:21.956Z,4.90
2023-01-19T14:42:53.581Z,4.80
2023-01-19T14:45:25.079Z,4.80
2023-01-19T14:47:59.723Z,4.70
2023-01-19T14:50:31.406Z,4.60
2023-01-19T14:53:02.336Z,4.60
2023-01-19T14:55:36.908Z,4.50
2023-01-19T14:58:11.565Z,4.40
2023-01-19T15:00:40.324Z,4.50
2023-01-19T15:03:10.858Z,4.40
2023-01-19T15:05:39.872Z,4.20
2023-01-19T15:08:08.798Z,4.20
2023-01-19T15:10:37.758Z,4.30
2023-01-19T15:13:06.034Z,4.20
2023-01-19T15:15:36.149Z,4.20
2023-01-19T15:18:08.020Z,4.20
2023-01-19T15:20:38.275Z,4.10
2023-01-19T15:23:06.521Z,4.10
2023-01-19T15:25:34.907Z,4.10
2023-01-19T15:28:04.208Z,4.10
2023-01-19T15:30:33.558Z,4.10
2023-01-19T15:33:02.619Z,4.00
2023-01-19T15:35:31.338Z,4.00
2023-01-19T15:38:00.992Z,4.00
2023-01-19T15:40:29.482Z,4.00
2023-01-19T15:42:57.726Z,4.00
2023-01-19T15:45:37.711Z,3.90
2023-01-19T15:48:08.582Z,3.90
2023-01-19T15:50:39.092Z,3.90
2023-01-19T15:53:13.055Z,3.80
2023-01-19T15:55:41.557Z,3.80
2023-01-19T15:58:10.564Z,3.80
2023-01-19T16:00:39.575Z,3.70
2023-01-19T16:03:07.972Z,3.60
2023-01-19T16:05:43.854Z,3.60
2023-01-19T16:08:13.816Z,3.60
2023-01-19T16:10:43.105Z,3.70
2023-01-19T16:13:12.588Z,3.70
2023-01-19T16:15:42.436Z,3.60
2023-01-19T16:18:10.885Z,3.60
2023-01-19T16:20:39.134Z,3.50
2023-01-19T16:23:15.655Z,3.60
2023-01-19T16:25:45.596Z,3.50
2023-01-19T16:28:14.004Z,3.40
2023-01-19T16:30:42.313Z,3.40
2023-01-19T16:33:13.539Z,3.30
2023-01-19T16:35:41.853Z,3.30
2023-01-19T16:38:10.353Z,3.30
2023-01-19T16:40:38.852Z,3.30
2023-01-19T16:43:08.431Z,3.20
2023-01-19T16:45:37.947Z,3.10
2023-01-19T16:48:06.821Z,3.20
2023-01-19T16:50:35.087Z,3.20
2023-01-19T16:53:03.309Z,3.20
2023-01-19T16:55:31.835Z,3.30
2023-01-19T16:58:00.261Z,3.30
2023-01-19T17:00:29.982Z,3.20
2023-01-19T17:02:58.543Z,3.30
2023-01-19T17:05:27.092Z,3.30
2023-01-19T17:07:55.347Z,3.30
2023-01-19T17:10:23.876Z,3.20
2023-01-19T17:12:52.293Z,3.10
2023-01-19T17:15:20.929Z,3.20
2023-01-19T17:17:51.016Z,3.20
2023-01-19T17:20:19.461Z,3.30
2023-01-19T17:22:47.757Z,3.20
2023-01-19T17:25:16.229Z,3.20
2023-01-19T17:27:44.654Z,3.20
2023-01-19T17:30:13.907Z,3.20
2023-01-19T17:32:43.020Z,3.30
2023-01-19T17:35:12.928Z,3.30
2023-01-19T17:37:41.165Z,3.30
2023-01-19T17:40:11.259Z,3.20
2023-01-19T17:42:41.954Z,3.20
2023-01-19T17:45:11.194Z,3.20
2023-01-19T17:47:39.661Z,3.30
2023-01-19T17:50:08.506Z,3.20
2023-01-19T17:52:38.711Z,3.10
2023-01-19T17:55:07.866Z,3.10
2023-01-19T17:57:36.211Z,3.20
2023-01-19T18:00:05.123Z,3.10
2023-01-19T18:02:34.477Z,3.10
2023-01-19T18:05:03.376Z,3.10
2023-01-19T18:07:32.010Z,3.10
2023-01-19T18:10:01.689Z,3.20
2023-01-19T18:12:30.277Z,3.10
2023-01-19T18:14:58.510Z,3.20
2023-01-19T18:17:26.765Z,3.30
2023-01-19T18:19:55.526Z,3.20
2023-01-19T18:22:23.926Z,3.10
2023-01-19T18:24:52.134Z,3.10
2023-01-19T18:27:22.134Z,3.10
2023-01-19T18:29:50.287Z,3.20
2023-01-19T18:32:18.532Z,3.20
2023-01-19T18:34:47.066Z,3.10
2023-01-19T18:37:15.352Z,3.10
2023-01-19T18:39:43.544Z,3.10
2023-01-19T18:42:12.219Z,3.10
2023-01-19T18:44:41.858Z,3.10
2023-01-19T18:47:10.196Z,3.10
2023-01-19T18:49:38.585Z,3.10
2023-01-19T18:52:07.049Z,3.00
2023-01-19T18:54:35.249Z,3.10
2023-01-19T18:57:03.699Z,3.10
2023-01-19T18:59:31.984Z,3.10
2023-01-19T19:02:01.696Z,3.20
2023-01-19T19:04:30.272Z,3.20
2023-01-19T19:06:58.510Z,3.10
2023-01-19T19:09:26.764Z,3.20
2023-01-19T19:11:55.018Z,3.20
2023-01-19T19:14:23.302Z,3.20
2023-01-19T19:16:51.834Z,3.00
2023-01-19T19:19:21.547Z,3.10
2023-01-19T19:21:52.219Z,3.20
2023-01-19T19:24:20.604Z,3.30
2023-01-19T19:26:48.883Z,3.10
2023-01-19T19:29:17.261Z,3.00
2023-01-19T19:31:46.197Z,3.00
2023-01-19T19:34:14.487Z,3.00
2023-01-19T19:36:44.275Z,3.00
2023-01-19T19:39:12.605Z,3.00
2023-01-19T19:41:42.375Z,3.00
2023-01-19T19:44:12.991Z,3.00
2023-01-19T19:46:42.019Z,3.10
2023-01-19T19:49:10.531Z,3.00
2023-01-19T19:51:38.920Z,3.00
2023-01-19T19:54:08.551Z,3.00
2023-01-19T19:56:36.752Z,3.10
2023-01-19T19:59:05.187Z,3.20
2023-01-19T20:01:34.172Z,3.10
2023-01-19T20:04:07.318Z,3.10
2023-01-19T20:06:38.721Z,3.10
2023-01-19T20:09:10.349Z,3.00
2023-01-19T20:11:38.741Z,3.00
2023-01-19T20:14:07.974Z,3.00
2023-01-19T20:16:36.852Z,3.00
2023-01-19T20:19:05.629Z,3.20
2023-01-19T20:21:35.759Z,3.10
2023-01-19T20:24:06.235Z,3.10
2023-01-19T20:26:40.273Z,3.00
2023-01-19T20:29:10.424Z,3.10
2023-01-19T20:31:41.476Z,3.00
2023-01-19T20:34:11.705Z,3.00
2023-01-19T20:36:41.272Z,3.00
2023-01-19T20:39:11.203Z,3.00
2023-01-19T20:41:45.152Z,3.00
2023-01-19T20:44:14.309Z,3.10
2023-01-19T20:46:42.627Z,3.10
2023-01-19T20:49:11.173Z,3.00
2023-01-19T20:51:43.456Z,3.00
2023-01-19T20:54:12.024Z,3.00
2023-01-19T20:56:42.548Z,2.90
2023-01-19T20:59:11.711Z,2.90
2023-01-19T21:01:40.992Z,2.90
2023-01-19T21:04:10.327Z,2.80
2023-01-19T21:06:39.279Z,2.80
2023-01-19T21:09:08.574Z,2.70
2023-01-19T21:11:37.944Z,2.70
2023-01-19T21:14:08.593Z,2.80
2023-01-19T21:16:37.811Z,2.90
2023-01-19T21:19:06.796Z,2.80
2023-01-19T21:21:35.278Z,2.90
2023-01-19T21:24:04.230Z,2.80
2023-01-19T21:26:33.700Z,2.90
2023-01-19T21:29:03.588Z,2.90
2023-01-19T21:31:33.407Z,2.90
2023-01-19T21:34:01.918Z,2.80
2023-01-19T21:36:30.156Z,2.80
2023-01-19T21:39:00.896Z,2.90
2023-01-19T21:41:31.186Z,2.80
2023-01-19T21:44:01.094Z,2.70
2023-01-19T21:46:32.247Z,2.90
2023-01-19T21:49:03.791Z,2.90
2023-01-19T21:51:34.872Z,2.80
2023-01-19T21:54:04.453Z,2.80
2023-01-19T21:56:32.822Z,2.80
2023-01-19T21:59:02.451Z,2.80
2023-01-19T22:01:31.008Z,2.80
2023-01-19T22:04:01.393Z,2.90
2023-01-19T22:06:30.504Z,3.00
2023-01-19T22:09:00.798Z,3.00
2023-01-19T22:11:30.141Z,3.20
2023-01-19T22:13:59.913Z,3.20
2023-01-19T22:16:28.905Z,3.20
2023-01-19T22:18:59.673Z,3.10
2023-01-19T22:21:31.301Z,3.10
2023-01-19T22:24:01.815Z,3.10
2023-01-19T22:26:31.154Z,3.10
2023-01-19T22:29:00.864Z,3.10
2023-01-19T22:31:30.650Z,3.10
2023-01-19T22:33:59.795Z,3.10
2023-01-19T22:36:31.480Z,3.10
2023-01-19T22:39:01.529Z,3.20
2023-01-19T22:41:31.978Z,3.20
2023-01-19T22:44:03.479Z,3.20
2023-01-19T22:46:33.562Z,3.20
2023-01-19T22:49:02.033Z,3.30
2023-01-19T22:51:32.976Z,3.30
2023-01-19T22:54:01.689Z,3.30
2023-01-19T22:56:31.619Z,3.30
2023-01-19T22:59:00.535Z,3.30
2023-01-19T23:01:30.329Z,3.30
2023-01-19T23:03:58.646Z,3.20
2023-01-19T23:06:28.695Z,3.30
2023-01-19T23:09:01.178Z,3.30
2023-01-19T23:11:31.317Z,3.30
2023-01-19T23:14:00.205Z,3.20
2023-01-19T23:16:28.532Z,3.30
2023-01-19T23:18:58.509Z,3.20
2023-01-19T23:21:28.991Z,3.20
2023-01-19T23:24:00.177Z,3.20
2023-01-19T23:26:30.808Z,3.20
2023-01-19T23:29:02.311Z,3.20
2023-01-19T23:31:32.363Z,3.20
2023-01-19T23:34:02.567Z,3.20
2023-01-19T23:36:32.603Z,3.20
2023-01-19T23:39:04.826Z,3.30
2023-01-19T23:41:34.839Z,3.20
2023-01-19T23:44:03.635Z,3.20
2023-01-19T23:46:32.578Z,3.10
2023-01-19T23:49:01.071Z,3.10
2023-01-19T23:51:31.046Z,3.00
2023-01-19T23:54:01.957Z,3.00
2023-01-19T23:56:32.183Z,3.00
2023-01-19T23:59:02.462Z,3.00
